Flight Briefing for CPX243

Departure Arrival
Chicago/Rockford International Airport (KRFD)
Click to view FAA NOTAMS
Huntsville International Airport (KHSV)
Click to view FAA NOTAMS
Departure Time Arrival Time
N/A N/A
Aircraft Distance
B767-300BDSF 466nm
Departure METAR Arrival METAR
KRFD 192254Z 06005KT 10SM FEW160 OVC250 M03/M10 A3048 RMK AO2 SLP336 T10331100 KHSV 192329Z 10012KT 4SM -TSRA BR BKN008 OVC060CB 06/06 A3018 RMK AO2 LTG DSNT ALQDS TSE01B20 FRQ LTGICCCCG VC W-NW TS VC W-NW MOV NE P0003 T00610056 $
Suggested Route
JOT EMBRR BNA RQZ


View recent IFR Routes data
Notes



Charts and Procedures

Charts for KRFD
No chart available
Charts for KHSV
No chart available

Ventusky Weather




{"cat":null,"equip":null,"transponder":null,"pbn":"PBN\/","maxpax":null,"oew":"0.0","mzfw":"0.0","mtow":"0.0","mlw":"0.0","maxfuel":"0.0"} DEVELOPMENTAL TEST USE ONLY